createdAt,value
2019-05-07T00:01:45.707Z,95537.66
2019-05-07T00:04:15.089Z,95528.44
2019-05-07T00:06:44.632Z,95529.42
2019-05-07T00:09:14.963Z,95528.01
2019-05-07T00:11:44.347Z,95527.58
2019-05-07T00:14:13.833Z,95531.47
2019-05-07T00:16:42.664Z,95530.14
2019-05-07T00:19:12.904Z,95522.80
2019-05-07T00:21:42.382Z,95514.94
2019-05-07T00:24:13.217Z,95520.02
2019-05-07T00:26:43.199Z,95522.36
2019-05-07T00:29:13.033Z,95517.55
2019-05-07T00:31:42.242Z,95519.16
2019-05-07T00:34:12.601Z,95519.45
2019-05-07T00:36:43.111Z,95522.41
2019-05-07T00:39:16.302Z,95513.39
2019-05-07T00:41:52.439Z,95517.04
2019-05-07T00:44:22.150Z,95511.61
2019-05-07T00:46:52.528Z,95509.36
2019-05-07T00:49:23.029Z,95504.55
2019-05-07T00:51:52.013Z,95502.87
2019-05-07T00:54:22.887Z,95495.10
2019-05-07T00:56:52.135Z,95499.16
2019-05-07T00:59:22.538Z,95495.80
2019-05-07T01:01:52.795Z,95493.20
2019-05-07T01:04:22.959Z,95492.46
2019-05-07T01:06:53.194Z,95489.44
2019-05-07T01:09:22.926Z,95489.20
2019-05-07T01:11:52.507Z,95488.32
2019-05-07T01:14:22.786Z,95493.48
2019-05-07T01:16:52.949Z,95493.12
2019-05-07T01:19:22.220Z,95490.56
2019-05-07T01:21:52.687Z,95492.13
2019-05-07T01:24:23.246Z,95488.25
2019-05-07T01:26:53.049Z,95490.19
2019-05-07T01:29:22.695Z,95490.47
2019-05-07T01:31:55.888Z,95489.67
2019-05-07T01:34:32.441Z,95479.88
2019-05-07T01:37:02.701Z,95473.05
2019-05-07T01:39:32.673Z,95467.88
2019-05-07T01:42:02.308Z,95476.55
2019-05-07T01:44:32.560Z,95477.89
2019-05-07T01:47:02.516Z,95490.94
2019-05-07T01:49:33.028Z,95482.18
2019-05-07T01:52:02.654Z,95472.52
2019-05-07T01:54:33.241Z,95472.05
2019-05-07T01:57:03.010Z,95473.27
2019-05-07T01:59:32.355Z,95477.77
2019-05-07T02:02:03.091Z,95475.20
2019-05-07T02:04:33.594Z,95470.13
2019-05-07T02:07:06.718Z,95477.01
2019-05-07T02:09:37.107Z,95470.19
2019-05-07T02:12:07.473Z,95474.09
2019-05-07T02:14:36.322Z,95467.02
2019-05-07T02:17:05.213Z,95464.52
2019-05-07T02:19:34.106Z,95461.20
2019-05-07T02:22:03.072Z,95463.52
2019-05-07T02:24:33.960Z,95464.75
2019-05-07T02:27:03.112Z,95469.10
2019-05-07T02:32:04.784Z,95461.70
2019-05-07T02:34:34.176Z,95453.13
2019-05-07T02:37:04.246Z,95455.59
2019-05-07T02:39:44.496Z,95451.89
2019-05-07T02:42:13.590Z,95456.68
2019-05-07T02:44:59.163Z,95459.69
2019-05-07T02:47:32.847Z,95462.02
2019-05-07T02:50:03.049Z,95451.73
2019-05-07T02:52:33.725Z,95445.35
2019-05-07T02:55:04.426Z,95442.58
2019-05-07T02:57:34.272Z,95451.23
2019-05-07T03:00:04.978Z,95452.81
2019-05-07T03:02:34.617Z,95460.14
2019-05-07T03:05:05.216Z,95459.48
2019-05-07T03:07:34.467Z,95455.66
2019-05-07T03:10:03.815Z,95454.92
2019-05-07T03:12:33.482Z,95461.75
2019-05-07T03:15:04.593Z,95462.18
2019-05-07T03:17:33.598Z,95460.25
2019-05-07T03:20:04.545Z,95470.70
2019-05-07T03:22:33.971Z,95474.73
2019-05-07T03:25:08.441Z,95482.43
2019-05-07T03:27:37.346Z,95484.34
2019-05-07T03:30:16.766Z,95486.92
2019-05-07T03:35:16.665Z,95481.00
2019-05-07T03:37:45.715Z,95475.45
2019-05-07T03:40:15.028Z,95473.59
2019-05-07T03:42:44.429Z,95475.30
2019-05-07T03:45:18.536Z,95469.20
2019-05-07T03:47:54.202Z,95470.81
2019-05-07T03:50:23.287Z,95474.47
2019-05-07T03:52:54.341Z,95472.64
2019-05-07T03:55:24.547Z,95475.50
2019-05-07T03:57:53.435Z,95480.89
2019-05-07T04:00:23.898Z,95480.92
2019-05-07T04:02:52.973Z,95484.03
2019-05-07T04:05:23.161Z,95490.42
2019-05-07T04:07:53.947Z,95486.86
2019-05-07T04:10:23.398Z,95488.34
2019-05-07T04:12:53.343Z,95487.30
2019-05-07T04:15:23.303Z,95492.16
2019-05-07T04:17:53.664Z,95483.83
2019-05-07T04:20:24.023Z,95483.65
2019-05-07T04:22:53.668Z,95486.31
2019-05-07T04:25:43.591Z,95490.64
2019-05-07T04:28:19.141Z,95494.79
2019-05-07T04:30:48.130Z,95496.52
2019-05-07T04:33:23.664Z,95492.50
2019-05-07T04:36:02.980Z,95496.97
2019-05-07T04:38:33.471Z,95504.59
2019-05-07T04:41:03.769Z,95502.33
2019-05-07T04:43:33.561Z,95495.69
2019-05-07T04:46:03.435Z,95491.80
2019-05-07T04:48:34.137Z,95493.93
2019-05-07T04:51:04.554Z,95495.27
2019-05-07T04:53:33.465Z,95500.34
2019-05-07T04:56:03.320Z,95507.22
2019-05-07T04:58:33.754Z,95511.41
2019-05-07T05:01:04.110Z,95512.73
2019-05-07T05:03:34.192Z,95516.53
2019-05-07T05:06:03.942Z,95504.72
2019-05-07T05:08:32.848Z,95506.38
2019-05-07T05:11:03.319Z,95509.13
2019-05-07T05:13:33.320Z,95504.52
2019-05-07T05:16:03.847Z,95503.02
2019-05-07T05:18:33.050Z,95499.56
2019-05-07T05:21:12.436Z,95499.06
2019-05-07T05:23:45.842Z,95499.56
2019-05-07T05:26:14.732Z,95507.33
2019-05-07T05:28:43.622Z,95505.72
2019-05-07T05:31:12.787Z,95509.76
2019-05-07T05:33:42.126Z,95511.14
2019-05-07T05:36:12.710Z,95514.70
2019-05-07T05:38:42.506Z,95519.16
2019-05-07T05:41:12.518Z,95513.91
2019-05-07T05:44:02.292Z,95516.98
2019-05-07T05:46:32.238Z,95522.53
2019-05-07T05:49:02.627Z,95524.73
2019-05-07T05:51:39.279Z,95522.92
2019-05-07T05:54:10.284Z,95524.55
2019-05-07T05:56:53.037Z,95527.33
2019-05-07T05:59:32.573Z,95533.39
2019-05-07T06:01:58.498Z,95532.88
2019-05-07T06:04:38.045Z,95528.28
2019-05-07T06:07:25.469Z,95529.37
2019-05-07T06:10:02.575Z,95533.16
2019-05-07T06:12:49.259Z,95530.58
2019-05-07T06:15:33.201Z,95537.16
2019-05-07T06:18:17.709Z,95533.94
2019-05-07T06:20:38.437Z,95532.97
2019-05-07T06:23:17.796Z,95535.04
2019-05-07T06:25:48.224Z,95539.09
2019-05-07T06:28:17.117Z,95532.72
2019-05-07T06:30:46.011Z,95512.19
2019-05-07T06:33:14.898Z,95507.73
2019-05-07T06:35:43.789Z,95507.86
2019-05-07T06:38:13.809Z,95502.79
2019-05-07T06:40:47.451Z,95499.61
2019-05-07T06:43:23.728Z,95493.62
2019-05-07T06:45:54.082Z,95502.79
2019-05-07T06:48:37.961Z,95501.02
2019-05-07T06:51:00.053Z,95495.05
2019-05-07T06:53:30.246Z,95508.98
2019-05-07T06:56:02.533Z,95497.48
2019-05-07T06:58:35.245Z,95496.59
2019-05-07T07:01:09.149Z,95488.04
2019-05-07T07:03:39.490Z,95487.51
2019-05-07T07:06:16.665Z,95490.53
2019-05-07T07:08:52.826Z,95485.80
2019-05-07T07:11:23.488Z,95488.91
2019-05-07T07:13:52.449Z,95493.52
2019-05-07T07:16:22.588Z,95503.46
2019-05-07T07:18:55.025Z,95499.27
2019-05-07T07:21:22.504Z,95484.88
2019-05-07T07:23:52.381Z,95480.39
2019-05-07T07:26:22.199Z,95484.48
2019-05-07T07:28:52.520Z,95487.70
2019-05-07T07:31:26.062Z,95479.88
2019-05-07T07:33:55.256Z,95477.48
2019-05-07T07:36:27.116Z,95487.33
2019-05-07T07:38:56.014Z,95487.13
2019-05-07T07:41:26.431Z,95485.20
2019-05-07T07:43:55.425Z,95478.80
2019-05-07T07:46:24.418Z,95483.10
2019-05-07T07:49:06.683Z,95476.48
2019-05-07T07:51:38.108Z,95473.18
2019-05-07T07:53:54.573Z,95471.39
2019-05-07T07:56:27.785Z,95466.09
2019-05-07T07:59:07.004Z,95466.92
2019-05-07T08:01:43.472Z,95467.68
2019-05-07T08:04:12.768Z,95472.48
2019-05-07T08:06:42.161Z,95473.18
2019-05-07T08:09:12.985Z,95473.19
2019-05-07T08:11:42.699Z,95474.59
2019-05-07T08:14:12.793Z,95473.17
2019-05-07T08:16:42.992Z,95468.56
2019-05-07T08:19:21.623Z,95462.03
2019-05-07T08:21:43.097Z,95463.19
2019-05-07T08:24:12.391Z,95457.11
2019-05-07T08:26:42.825Z,95449.99
2019-05-07T08:29:12.133Z,95451.13
2019-05-07T08:31:49.003Z,95437.09
2019-05-07T08:34:22.608Z,95438.70
2019-05-07T08:36:52.731Z,95441.02
2019-05-07T08:39:24.713Z,95446.27
2019-05-07T08:41:52.818Z,95443.04
2019-05-07T08:44:28.922Z,95440.64
2019-05-07T08:47:15.425Z,95430.73
2019-05-07T08:49:44.829Z,95431.91
2019-05-07T08:52:13.719Z,95420.22
2019-05-07T08:54:42.887Z,95414.05
2019-05-07T08:57:12.732Z,95407.92
2019-05-07T08:59:42.469Z,95400.58
2019-05-07T09:02:12.742Z,95403.60
2019-05-07T09:04:41.941Z,95397.86
2019-05-07T09:07:13.019Z,95394.30
2019-05-07T09:09:42.715Z,95398.98
2019-05-07T09:12:12.400Z,95394.67
2019-05-07T09:14:42.562Z,95398.52
2019-05-07T09:17:12.930Z,95393.09
2019-05-07T09:19:50.948Z,95383.41
2019-05-07T09:22:12.874Z,95384.76
2019-05-07T09:24:42.623Z,95386.05
2019-05-07T09:27:13.766Z,95381.44
2019-05-07T09:29:59.443Z,95378.33
2019-05-07T09:32:29.874Z,95382.20
2019-05-07T09:35:03.680Z,95373.69
2019-05-07T09:37:33.389Z,95376.69
2019-05-07T09:40:02.902Z,95369.08
2019-05-07T09:42:33.333Z,95362.70
2019-05-07T09:45:02.529Z,95372.09
2019-05-07T09:47:32.505Z,95372.09
2019-05-07T09:50:07.003Z,95369.65
2019-05-07T09:52:32.341Z,95367.16
2019-05-07T09:55:11.094Z,95363.69
2019-05-07T09:57:34.669Z,95360.20
2019-05-07T10:00:02.744Z,95347.39
2019-05-07T10:02:32.147Z,95346.63
2019-05-07T10:05:02.441Z,95341.05
2019-05-07T10:07:32.435Z,95338.09
2019-05-07T10:10:03.173Z,95334.20
2019-05-07T10:12:37.013Z,95330.70
2019-05-07T10:15:07.314Z,95331.38
2019-05-07T10:17:40.735Z,95330.08
2019-05-07T10:20:19.308Z,95327.67
2019-05-07T10:22:42.862Z,95326.48
2019-05-07T10:25:13.220Z,95323.55
2019-05-07T10:27:42.218Z,95319.86
2019-05-07T10:30:12.911Z,95328.53
2019-05-07T10:32:42.364Z,95331.66
2019-05-07T10:35:12.889Z,95332.89
2019-05-07T10:37:42.428Z,95331.05
2019-05-07T10:40:14.096Z,95332.99
2019-05-07T10:42:43.235Z,95330.83
2019-05-07T10:45:21.930Z,95326.55
2019-05-07T10:47:58.388Z,95325.31
2019-05-07T10:50:38.647Z,95325.94
2019-05-07T10:53:02.486Z,95333.98
2019-05-07T10:55:32.856Z,95325.73
2019-05-07T10:58:03.049Z,95321.58
2019-05-07T11:00:33.114Z,95315.30
2019-05-07T11:03:02.520Z,95313.11
2019-05-07T11:05:32.693Z,95312.18
2019-05-07T11:08:02.462Z,95310.46
2019-05-07T11:10:32.641Z,95308.44
2019-05-07T11:13:02.290Z,95303.04
2019-05-07T11:15:32.701Z,95305.05
2019-05-07T11:18:03.877Z,95306.45
2019-05-07T11:20:45.625Z,95304.19
2019-05-07T11:23:03.211Z,95300.22
2019-05-07T11:25:32.103Z,95292.35
2019-05-07T11:28:02.797Z,95295.03
2019-05-07T11:30:32.130Z,95290.23
2019-05-07T11:33:02.688Z,95288.94
2019-05-07T11:35:32.078Z,95282.70
2019-05-07T11:38:11.019Z,95287.14
2019-05-07T11:40:34.596Z,95287.89
2019-05-07T11:43:13.032Z,95285.56
2019-05-07T11:45:54.249Z,95281.16
2019-05-07T11:48:23.893Z,95280.79
2019-05-07T11:51:15.098Z,95275.43
2019-05-07T11:54:02.077Z,95276.78
2019-05-07T11:56:32.827Z,95279.47
2019-05-07T11:59:02.669Z,95272.56
2019-05-07T12:01:44.001Z,95266.66
2019-05-07T12:04:02.779Z,95258.78
2019-05-07T12:06:32.188Z,95267.53
2019-05-07T12:09:02.996Z,95255.53
2019-05-07T12:11:32.180Z,95249.84
2019-05-07T12:14:02.015Z,95247.01
2019-05-07T12:16:32.135Z,95247.68
2019-05-07T12:19:02.209Z,95252.44
2019-05-07T12:21:31.416Z,95238.58
2019-05-07T12:24:02.159Z,95227.73
2019-05-07T12:26:32.602Z,95237.81
2019-05-07T12:29:01.424Z,95228.13
2019-05-07T12:31:44.235Z,95224.23
2019-05-07T12:34:14.662Z,95229.20
2019-05-07T12:36:43.553Z,95225.08
2019-05-07T12:39:12.951Z,95220.16
2019-05-07T12:41:42.060Z,95219.36
2019-05-07T12:44:13.200Z,95220.16
2019-05-07T12:46:42.484Z,95216.17
2019-05-07T12:49:12.215Z,95217.09
2019-05-07T12:51:45.399Z,95210.41
2019-05-07T12:54:18.896Z,95206.57
2019-05-07T12:56:47.994Z,95202.60
2019-05-07T12:59:16.887Z,95200.70
2019-05-07T13:02:16.676Z,95205.70
2019-05-07T13:04:36.991Z,95202.92
2019-05-07T13:07:16.636Z,95204.52
2019-05-07T13:09:45.525Z,95193.46
2019-05-07T13:12:14.419Z,95192.72
2019-05-07T13:14:43.410Z,95184.19
2019-05-07T13:17:12.301Z,95183.05
2019-05-07T13:19:42.035Z,95181.75
2019-05-07T13:22:13.005Z,95179.32
2019-05-07T13:24:42.628Z,95177.78
2019-05-07T13:27:12.269Z,95176.73
2019-05-07T13:29:42.510Z,95176.83
2019-05-07T13:32:14.224Z,95163.84
2019-05-07T13:34:43.451Z,95165.89
2019-05-07T13:37:23.398Z,95167.28
2019-05-07T13:40:02.534Z,95165.18
2019-05-07T13:42:44.938Z,95157.70
2019-05-07T13:45:28.879Z,95161.77
2019-05-07T13:47:59.459Z,95164.38
2019-05-07T13:50:28.497Z,95159.57
2019-05-07T13:52:57.398Z,95153.54
2019-05-07T13:55:26.289Z,95158.83
2019-05-07T13:57:55.286Z,95149.41
2019-05-07T14:00:25.915Z,95153.29
2019-05-07T14:02:55.317Z,95147.80
2019-05-07T14:05:24.312Z,95143.27
2019-05-07T14:07:53.202Z,95136.45
2019-05-07T14:10:22.202Z,95133.55
2019-05-07T14:12:52.128Z,95135.37
2019-05-07T14:15:23.154Z,95133.81
2019-05-07T14:17:52.659Z,95134.11
2019-05-07T14:20:22.983Z,95127.77
2019-05-07T14:22:51.882Z,95117.44
2019-05-07T14:25:21.923Z,95119.31
2019-05-07T14:27:52.616Z,95122.76
2019-05-07T14:30:24.540Z,95115.87
2019-05-07T14:32:54.199Z,95116.07
2019-05-07T14:35:32.220Z,95115.34
2019-05-07T14:38:02.632Z,95121.88
2019-05-07T14:40:32.362Z,95112.40
2019-05-07T14:43:17.923Z,95111.14
2019-05-07T14:45:46.915Z,95111.14
2019-05-07T14:48:15.909Z,95108.82
2019-05-07T14:50:45.161Z,95102.58
2019-05-07T14:53:15.728Z,95113.77
2019-05-07T14:55:44.637Z,95110.58
2019-05-07T14:58:13.521Z,95110.58
2019-05-07T15:00:42.911Z,95100.06
2019-05-07T15:03:12.700Z,95097.94
2019-05-07T15:05:42.392Z,95099.55
2019-05-07T15:08:14.245Z,95091.52
2019-05-07T15:10:42.587Z,95088.02
2019-05-07T15:13:12.914Z,95087.11
2019-05-07T15:15:42.513Z,95093.13
2019-05-07T15:18:23.197Z,95078.34
2019-05-07T15:20:52.545Z,95086.88
2019-05-07T15:23:26.192Z,95082.03
2019-05-07T15:25:55.181Z,95075.00
2019-05-07T15:28:24.177Z,95076.72
2019-05-07T15:31:12.633Z,95063.20
2019-05-07T15:33:41.889Z,95062.60
2019-05-07T15:36:11.984Z,95058.17
2019-05-07T15:38:43.059Z,95056.38
2019-05-07T15:41:12.188Z,95060.69
2019-05-07T15:43:45.547Z,95050.56
2019-05-07T15:46:12.636Z,95046.12
2019-05-07T15:48:43.058Z,95046.59
2019-05-07T15:51:12.031Z,95039.20
2019-05-07T15:53:52.114Z,95033.34
2019-05-07T15:56:21.883Z,95033.93
2019-05-07T15:58:51.779Z,95031.95
2019-05-07T16:01:22.163Z,95025.61
2019-05-07T16:03:54.339Z,95023.70
2019-05-07T16:06:22.125Z,95022.02
2019-05-07T16:08:52.721Z,95021.20
2019-05-07T16:11:23.224Z,95022.96
2019-05-07T16:14:06.105Z,95017.13
2019-05-07T16:16:36.493Z,95012.15
2019-05-07T16:19:13.679Z,95014.72
2019-05-07T16:21:42.744Z,95010.44
2019-05-07T16:24:12.179Z,95013.20
2019-05-07T16:26:41.931Z,95012.75
2019-05-07T16:29:13.275Z,95011.18
2019-05-07T16:31:44.241Z,95011.69
2019-05-07T16:34:12.813Z,95007.73
2019-05-07T16:36:42.024Z,95007.22
2019-05-07T16:39:12.329Z,95000.35
2019-05-07T16:41:42.257Z,95001.41
2019-05-07T16:44:12.484Z,94996.13
2019-05-07T16:46:42.164Z,94994.02
2019-05-07T16:49:14.405Z,94998.51
2019-05-07T16:51:44.695Z,94998.23
2019-05-07T16:54:13.721Z,94994.30
2019-05-07T16:57:03.110Z,94994.03
2019-05-07T16:59:32.536Z,94990.28
2019-05-07T17:02:03.135Z,94989.19
2019-05-07T17:04:32.126Z,94984.89
2019-05-07T17:07:02.581Z,94986.88
2019-05-07T17:09:32.319Z,94986.86
2019-05-07T17:12:03.718Z,94980.77
2019-05-07T17:14:32.713Z,94981.88
2019-05-07T17:17:02.504Z,94977.14
2019-05-07T17:19:32.024Z,94971.89
2019-05-07T17:22:02.873Z,94970.30
2019-05-07T17:24:33.803Z,94967.92
2019-05-07T17:27:03.207Z,94965.83
2019-05-07T17:29:32.309Z,94962.13
2019-05-07T17:32:01.674Z,94969.77
2019-05-07T17:34:30.599Z,94956.86
2019-05-07T17:37:01.831Z,94962.40
2019-05-07T17:39:32.063Z,94966.07
2019-05-07T17:42:02.478Z,94956.33
2019-05-07T17:44:32.416Z,94957.66
2019-05-07T17:47:02.017Z,94957.87
2019-05-07T17:49:32.436Z,94950.23
2019-05-07T17:52:02.965Z,94954.42
2019-05-07T17:54:31.973Z,94948.06
2019-05-07T17:57:01.994Z,94950.70
2019-05-07T17:59:32.127Z,94950.63
2019-05-07T18:02:08.882Z,94949.56
2019-05-07T18:04:50.563Z,94951.62
2019-05-07T18:07:11.984Z,94954.83
2019-05-07T18:09:42.421Z,94959.05
2019-05-07T18:12:12.235Z,94965.05
2019-05-07T18:14:42.382Z,94963.20
2019-05-07T18:17:19.527Z,94969.77
2019-05-07T18:19:49.033Z,94972.66
2019-05-07T18:22:18.026Z,94971.36
2019-05-07T18:24:47.020Z,94970.76
2019-05-07T18:27:17.446Z,94970.87
2019-05-07T18:29:46.337Z,94975.14
2019-05-07T18:32:15.230Z,94974.55
2019-05-07T18:34:44.119Z,94974.02
2019-05-07T18:37:12.916Z,94976.13
2019-05-07T18:39:42.937Z,94980.04
2019-05-07T18:42:13.771Z,94986.36
2019-05-07T18:44:42.653Z,94989.27
2019-05-07T18:47:12.904Z,94989.80
2019-05-07T18:49:42.930Z,94989.83
2019-05-07T18:52:12.603Z,94990.92
2019-05-07T18:54:42.777Z,94999.34
2019-05-07T18:57:13.771Z,94993.81
2019-05-07T18:59:42.659Z,95000.27
2019-05-07T19:02:12.062Z,94996.85
2019-05-07T19:04:42.258Z,95001.48
2019-05-07T19:07:13.206Z,95000.72
2019-05-07T19:09:43.796Z,95004.94
2019-05-07T19:12:14.206Z,95006.72
2019-05-07T19:14:43.284Z,95001.35
2019-05-07T19:17:12.303Z,95002.63
2019-05-07T19:19:41.927Z,95005.30
2019-05-07T19:22:10.739Z,95011.07
2019-05-07T19:24:47.103Z,95017.36
2019-05-07T19:27:12.573Z,95025.78
2019-05-07T19:29:45.713Z,95025.78
2019-05-07T19:32:14.832Z,95034.30
2019-05-07T19:34:43.824Z,95036.58
2019-05-07T19:37:12.715Z,95036.52
2019-05-07T19:39:42.911Z,95047.04
2019-05-07T19:42:12.196Z,95047.23
2019-05-07T19:44:42.567Z,95053.03
2019-05-07T19:47:12.628Z,95059.53
2019-05-07T19:49:41.925Z,95064.66
2019-05-07T19:52:12.433Z,95067.33
2019-05-07T19:54:44.324Z,95064.95
2019-05-07T19:57:13.678Z,95064.04
2019-05-07T19:59:42.907Z,95065.22
2019-05-07T20:02:13.507Z,95068.25
2019-05-07T20:04:42.730Z,95057.13
2019-05-07T20:07:12.261Z,95058.03
2019-05-07T20:09:42.857Z,95059.87
2019-05-07T20:12:11.840Z,95062.50
2019-05-07T20:14:42.208Z,95059.98
2019-05-07T20:17:12.266Z,95050.94
2019-05-07T20:19:41.772Z,95057.13
2019-05-07T20:22:12.778Z,95055.05
2019-05-07T20:24:41.857Z,95053.46
2019-05-07T20:27:12.501Z,95041.52
2019-05-07T20:29:42.804Z,95040.53
2019-05-07T20:32:12.286Z,95040.94
2019-05-07T20:34:42.335Z,95029.28
2019-05-07T20:37:12.964Z,95030.44
2019-05-07T20:39:44.463Z,95025.45
2019-05-07T20:42:14.810Z,95020.34
2019-05-07T20:44:43.703Z,95014.05
2019-05-07T20:47:12.828Z,95016.49
2019-05-07T20:49:42.791Z,95013.11
2019-05-07T20:52:11.812Z,95008.80
2019-05-07T20:54:44.901Z,95015.64
2019-05-07T20:57:22.495Z,95010.84
2019-05-07T20:59:53.150Z,95006.36
2019-05-07T21:02:22.723Z,95008.20
2019-05-07T21:04:52.006Z,95008.99
2019-05-07T21:07:22.163Z,94999.06
2019-05-07T21:09:52.995Z,94999.69
2019-05-07T21:12:22.619Z,95000.48
2019-05-07T21:14:52.507Z,94999.65
2019-05-07T21:17:22.731Z,94992.31
2019-05-07T21:19:53.167Z,94993.39
2019-05-07T21:22:22.801Z,94990.52
2019-05-07T21:24:53.158Z,94982.45
2019-05-07T21:27:22.312Z,94977.23
2019-05-07T21:29:52.735Z,94987.74
2019-05-07T21:32:23.099Z,94993.83
2019-05-07T21:34:52.714Z,94986.66
2019-05-07T21:37:23.494Z,94987.45
2019-05-07T21:39:53.153Z,94990.33
2019-05-07T21:42:23.426Z,94995.86
2019-05-07T21:44:52.764Z,95005.19
2019-05-07T21:47:22.273Z,95007.89
2019-05-07T21:49:54.908Z,95004.40
2019-05-07T21:52:26.135Z,94994.89
2019-05-07T21:54:59.351Z,94995.98
2019-05-07T21:57:45.957Z,94991.16
2019-05-07T22:00:17.875Z,94994.36
2019-05-07T22:02:46.707Z,94989.14
2019-05-07T22:05:15.905Z,94987.84
2019-05-07T22:07:44.797Z,94981.78
2019-05-07T22:10:14.098Z,94981.02
2019-05-07T22:12:43.095Z,94983.39
2019-05-07T22:15:13.216Z,94989.62
2019-05-07T22:17:44.180Z,94990.61
2019-05-07T22:20:13.148Z,94994.02
2019-05-07T22:22:42.759Z,94989.50
2019-05-07T22:25:13.079Z,94986.83
2019-05-07T22:27:42.238Z,94989.55
2019-05-07T22:30:13.215Z,94995.20
2019-05-07T22:32:52.962Z,94997.78
2019-05-07T22:35:29.328Z,94996.62
2019-05-07T22:37:58.230Z,94989.12
2019-05-07T22:40:27.059Z,94991.55
2019-05-07T22:42:56.008Z,94997.34
2019-05-07T22:45:24.893Z,94994.27
2019-05-07T22:47:53.788Z,94989.24
2019-05-07T22:50:22.713Z,94979.83
2019-05-07T22:52:54.213Z,94962.62
2019-05-07T22:55:22.303Z,94960.92
2019-05-07T22:58:01.639Z,94962.86
2019-05-07T23:00:34.833Z,94977.80
2019-05-07T23:03:03.721Z,94976.63
2019-05-07T23:05:32.611Z,94979.45
2019-05-07T23:08:02.349Z,94986.74
2019-05-07T23:10:33.239Z,94991.31
2019-05-07T23:13:02.403Z,94988.20
2019-05-07T23:15:32.202Z,94979.02
2019-05-07T23:18:04.174Z,94970.92
2019-05-07T23:20:32.410Z,94957.52
2019-05-07T23:23:01.299Z,94953.27
2019-05-07T23:25:32.247Z,94944.00
2019-05-07T23:28:04.903Z,94938.58
2019-05-07T23:30:33.108Z,94936.12
2019-05-07T23:33:02.602Z,94936.12
2019-05-07T23:35:32.832Z,94936.27
2019-05-07T23:38:02.485Z,94937.48
2019-05-07T23:40:48.218Z,94932.78
2019-05-07T23:43:18.850Z,94933.77
2019-05-07T23:45:47.741Z,94940.67
2019-05-07T23:48:16.734Z,94934.32
2019-05-07T23:50:45.624Z,94934.96
2019-05-07T23:53:14.518Z,94931.30
2019-05-07T23:55:43.408Z,94939.56
2019-05-07T23:58:14.142Z,94940.11
